Time,TemperatureF,DewpointF,PressureIn,WindDirection,WindDirectionDegrees,WindSpeedMPH,WindSpeedGustMPH,Humidity,HourlyPrecipIn,Conditions,Clouds,dailyrainin,SoftwareType,DateUTC
2013-09-02 00:01:00,75.7,73.2,29.93,SE,135,0.0,0.0,92,0.00,BKN,,0.00,WeatherDisplay:10.37,2013-09-02 04:01:00,
2013-09-02 00:02:00,75.7,73.2,29.93,SE,135,0.0,0.0,92,0.00,BKN,,0.00,WeatherDisplay:10.37,2013-09-02 04:02:00,
2013-09-02 00:03:00,75.7,73.2,29.94,SE,135,0.0,0.0,92,0.00,BKN,,0.00,WeatherDisplay:10.37,2013-09-02 04:03:00,
2013-09-02 00:08:00,75.6,73.1,29.93,SE,135,0.0,0.0,92,0.00,BKN,,0.00,WeatherDisplay:10.37,2013-09-02 04:08:00,
2013-09-02 00:13:00,75.6,73.1,29.93,SE,135,0.0,0.0,92,0.00,BKN,,0.00,WeatherDisplay:10.37,2013-09-02 04:13:00,
2013-09-02 00:18:00,75.4,73.2,29.93,SE,135,0.0,0.0,93,0.00,BKN,,0.00,WeatherDisplay:10.37,2013-09-02 04:18:00,
2013-09-02 00:23:00,75.4,73.2,29.93,SE,135,0.0,0.0,93,0.00,BKN,,0.00,WeatherDisplay:10.37,2013-09-02 04:23:00,
2013-09-02 00:28:00,75.4,73.2,29.93,SE,135,0.0,0.0,93,0.00,BKN,,0.00,WeatherDisplay:10.37,2013-09-02 04:28:00,
2013-09-02 00:33:00,75.4,73.2,29.93,SE,135,0.0,0.0,93,0.00,BKN,,0.00,WeatherDisplay:10.37,2013-09-02 04:33:00,
2013-09-02 00:38:00,75.2,72.7,29.93,SE,135,0.0,0.0,92,0.00,BKN,,0.00,WeatherDisplay:10.37,2013-09-02 04:38:00,
2013-09-02 00:43:00,75.0,72.5,29.93,SE,135,0.0,0.0,92,0.00,BKN,,0.00,WeatherDisplay:10.37,2013-09-02 04:43:00,
2013-09-02 00:48:00,74.8,72.7,29.93,SE,135,0.0,0.0,93,0.00,BKN,,0.00,WeatherDisplay:10.37,2013-09-02 04:48:00,
2013-09-02 00:53:00,74.8,72.7,29.92,SE,135,0.0,0.0,93,0.00,BKN,,0.00,WeatherDisplay:10.37,2013-09-02 04:53:00,
2013-09-02 00:58:00,74.8,72.7,29.92,SE,135,0.0,0.0,93,0.00,BKN,,0.00,WeatherDisplay:10.37,2013-09-02 04:58:00,
2013-09-02 01:03:00,74.8,72.7,29.92,SE,135,0.0,0.0,93,0.00,BKN,,0.00,WeatherDisplay:10.37,2013-09-02 05:03:00,
2013-09-02 01:08:00,74.7,72.5,29.92,SE,135,0.0,0.0,93,0.00,SCT,,0.00,WeatherDisplay:10.37,2013-09-02 05:08:00,
2013-09-02 01:13:00,74.8,72.7,29.92,SE,135,0.0,0.0,93,0.00,SCT,,0.00,WeatherDisplay:10.37,2013-09-02 05:13:00,
2013-09-02 01:18:00,74.8,72.7,29.92,SE,135,0.0,0.0,93,0.00,SCT,,0.00,WeatherDisplay:10.37,2013-09-02 05:18:00,
2013-09-02 01:23:00,74.8,72.7,29.92,SE,135,0.0,0.0,93,0.00,SCT,,0.00,WeatherDisplay:10.37,2013-09-02 05:23:00,
2013-09-02 01:28:00,74.8,73.0,29.92,SE,135,0.0,0.0,94,0.00,SCT,,0.00,WeatherDisplay:10.37,2013-09-02 05:28:00,
2013-09-02 01:33:00,74.8,72.7,29.91,SE,135,0.0,0.0,93,0.00,SCT,,0.00,WeatherDisplay:10.37,2013-09-02 05:33:00,
2013-09-02 01:38:00,74.7,72.5,29.92,SE,135,0.0,0.0,93,0.00,SCT,,0.00,WeatherDisplay:10.37,2013-09-02 05:38:00,
2013-09-02 01:43:00,74.7,72.5,29.91,SE,135,0.0,0.0,93,0.00,SCT,,0.00,WeatherDisplay:10.37,2013-09-02 05:43:00,
2013-09-02 01:48:00,74.5,72.3,29.91,SW,225,0.0,0.0,93,0.00,SCT,,0.00,WeatherDisplay:10.37,2013-09-02 05:48:00,
2013-09-02 01:53:00,74.5,72.3,29.91,SW,225,0.0,0.0,93,0.00,SCT,,0.00,WeatherDisplay:10.37,2013-09-02 05:53:00,
2013-09-02 01:58:00,74.5,72.3,29.92,SW,225,0.0,0.0,93,0.00,SCT,,0.00,WeatherDisplay:10.37,2013-09-02 05:58:00,
2013-09-02 02:03:00,74.3,72.1,29.92,SW,225,0.0,0.0,93,0.00,SCT,,0.00,WeatherDisplay:10.37,2013-09-02 06:03:00,
2013-09-02 02:08:00,74.1,72.0,29.92,SW,225,0.0,0.0,93,0.00,SCT,,0.00,WeatherDisplay:10.37,2013-09-02 06:08:00,
2013-09-02 02:13:00,73.9,71.8,29.92,SW,225,0.0,0.0,93,0.00,SCT,,0.00,WeatherDisplay:10.37,2013-09-02 06:13:00,
2013-09-02 02:18:00,73.9,71.8,29.91,SW,225,0.0,0.0,93,0.00,SCT,,0.00,WeatherDisplay:10.37,2013-09-02 06:18:00,
2013-09-02 02:23:00,73.9,72.1,29.91,SW,225,0.0,0.0,94,0.00,SCT,,0.00,WeatherDisplay:10.37,2013-09-02 06:23:00,
2013-09-02 02:28:00,73.8,71.9,29.91,SW,225,0.0,0.0,94,0.00,SCT,,0.00,WeatherDisplay:10.37,2013-09-02 06:28:00,
2013-09-02 02:33:00,73.8,71.9,29.91,SW,225,0.0,0.0,94,0.00,SCT,,0.00,WeatherDisplay:10.37,2013-09-02 06:33:00,
2013-09-02 02:38:00,73.8,71.9,29.92,SW,225,0.0,0.0,94,0.00,SCT,,0.00,WeatherDisplay:10.37,2013-09-02 06:38:00,
2013-09-02 02:43:00,73.9,72.1,29.91,SW,225,0.0,0.0,94,0.00,SCT,,0.00,WeatherDisplay:10.37,2013-09-02 06:43:00,
2013-09-02 02:48:00,73.9,72.1,29.91,SW,225,0.0,0.0,94,0.00,SCT,,0.00,WeatherDisplay:10.37,2013-09-02 06:48:00,
2013-09-02 02:53:00,73.9,71.8,29.91,SW,225,0.0,0.0,93,0.00,SCT,,0.00,WeatherDisplay:10.37,2013-09-02 06:53:00,
2013-09-02 02:58:00,74.1,72.0,29.91,SW,225,0.0,0.0,93,0.00,SCT,,0.00,WeatherDisplay:10.37,2013-09-02 06:58:00,
2013-09-02 03:03:00,73.9,71.8,29.91,SW,225,0.0,0.0,93,0.00,SCT,,0.00,WeatherDisplay:10.37,2013-09-02 07:03:00,
2013-09-02 03:08:00,73.9,71.8,29.91,SW,225,0.0,0.0,93,0.00,FEW,,0.00,WeatherDisplay:10.37,2013-09-02 07:08:00,
2013-09-02 03:13:00,73.9,71.8,29.91,SW,225,0.0,0.0,93,0.00,FEW,,0.00,WeatherDisplay:10.37,2013-09-02 07:13:00,
2013-09-02 03:18:00,73.9,71.8,29.91,SW,225,0.0,0.0,93,0.00,FEW,,0.00,WeatherDisplay:10.37,2013-09-02 07:18:00,
2013-09-02 03:23:00,73.9,71.8,29.91,SW,225,0.0,0.0,93,0.00,FEW,,0.00,WeatherDisplay:10.37,2013-09-02 07:23:00,
2013-09-02 03:28:00,73.9,71.8,29.91,SW,225,0.0,0.0,93,0.00,FEW,,0.00,WeatherDisplay:10.37,2013-09-02 07:28:00,
2013-09-02 03:33:00,73.9,71.8,29.92,SW,225,0.0,0.0,93,0.00,FEW,,0.00,WeatherDisplay:10.37,2013-09-02 07:33:00,
2013-09-02 03:38:00,73.9,71.8,29.92,SW,225,0.0,0.0,93,0.00,FEW,,0.00,WeatherDisplay:10.37,2013-09-02 07:38:00,
2013-09-02 03:43:00,74.1,72.0,29.92,SW,225,0.0,0.0,93,0.00,FEW,,0.00,WeatherDisplay:10.37,2013-09-02 07:43:00,
2013-09-02 03:48:00,74.1,72.0,29.92,SW,225,0.0,0.0,93,0.00,FEW,,0.00,WeatherDisplay:10.37,2013-09-02 07:48:00,
2013-09-02 03:53:00,74.1,72.0,29.92,SW,225,0.0,0.0,93,0.00,FEW,,0.00,WeatherDisplay:10.37,2013-09-02 07:53:00,
2013-09-02 03:58:00,73.9,71.8,29.92,SW,225,0.0,0.0,93,0.00,FEW,,0.00,WeatherDisplay:10.37,2013-09-02 07:58:00,
2013-09-02 04:03:00,73.9,71.8,29.92,SW,225,0.0,0.0,93,0.00,FEW,,0.00,WeatherDisplay:10.37,2013-09-02 08:03:00,
2013-09-02 04:07:00,73.9,71.8,29.92,SW,225,0.0,0.0,93,0.00,FEW,,0.00,WeatherDisplay:10.37,2013-09-02 08:07:00,
2013-09-02 04:12:00,73.8,71.6,29.92,SW,225,0.0,0.0,93,0.00,FEW,,0.00,WeatherDisplay:10.37,2013-09-02 08:12:00,
2013-09-02 04:17:00,73.6,71.4,29.92,SW,225,0.0,0.0,93,0.00,FEW,,0.00,WeatherDisplay:10.37,2013-09-02 08:17:00,
2013-09-02 04:22:00,73.6,71.4,29.92,SW,225,0.0,0.0,93,0.00,FEW,,0.00,WeatherDisplay:10.37,2013-09-02 08:22:00,
2013-09-02 04:27:00,73.6,71.7,29.92,SW,225,0.0,0.0,94,0.00,FEW,,0.00,WeatherDisplay:10.37,2013-09-02 08:27:00,
2013-09-02 04:32:00,73.6,71.7,29.92,SW,225,0.0,0.0,94,0.00,FEW,,0.00,WeatherDisplay:10.37,2013-09-02 08:32:00,
2013-09-02 04:37:00,73.6,71.7,29.92,SW,225,0.0,0.0,94,0.00,FEW,,0.00,WeatherDisplay:10.37,2013-09-02 08:37:00,
2013-09-02 04:42:00,73.4,71.6,29.92,SW,225,0.0,0.0,94,0.00,FEW,,0.00,WeatherDisplay:10.37,2013-09-02 08:42:00,
2013-09-02 04:47:00,73.4,71.6,29.92,SW,225,0.0,0.0,94,0.00,FEW,,0.00,WeatherDisplay:10.37,2013-09-02 08:47:00,
2013-09-02 04:52:00,73.2,71.4,29.92,SW,225,0.0,0.0,94,0.00,FEW,,0.00,WeatherDisplay:10.37,2013-09-02 08:52:00,
2013-09-02 04:57:00,73.2,71.4,29.92,SW,225,0.0,0.0,94,0.00,FEW,,0.00,WeatherDisplay:10.37,2013-09-02 08:57:00,
2013-09-02 05:02:00,73.2,71.4,29.92,SW,225,0.0,0.0,94,0.00,FEW,,0.00,WeatherDisplay:10.37,2013-09-02 09:02:00,
2013-09-02 05:07:00,73.0,71.2,29.92,SW,225,0.0,0.0,94,0.00,FEW,,0.00,WeatherDisplay:10.37,2013-09-02 09:07:00,
2013-09-02 05:12:00,73.0,71.2,29.92,SW,225,0.0,0.0,94,0.00,FEW,,0.00,WeatherDisplay:10.37,2013-09-02 09:12:00,
2013-09-02 05:17:00,73.0,71.2,29.92,SW,225,0.0,0.0,94,0.00,FEW,,0.00,WeatherDisplay:10.37,2013-09-02 09:17:00,
2013-09-02 05:22:00,73.0,71.2,29.92,SW,225,0.0,0.0,94,0.00,FEW,,0.00,WeatherDisplay:10.37,2013-09-02 09:22:00,
2013-09-02 05:27:00,72.7,70.9,29.92,SW,225,0.0,0.0,94,0.00,FEW,,0.00,WeatherDisplay:10.37,2013-09-02 09:27:00,
2013-09-02 05:32:00,72.7,70.9,29.93,SW,225,0.0,0.0,94,0.00,FEW,,0.00,WeatherDisplay:10.37,2013-09-02 09:32:00,
2013-09-02 05:37:00,72.9,71.0,29.93,SW,225,0.0,0.0,94,0.00,FEW,,0.00,WeatherDisplay:10.37,2013-09-02 09:37:00,
2013-09-02 05:42:00,72.7,70.9,29.92,SW,225,0.0,0.0,94,0.00,FEW,,0.00,WeatherDisplay:10.37,2013-09-02 09:42:00,
2013-09-02 05:43:00,72.7,70.9,29.92,SW,225,0.0,0.0,94,0.00,FEW,,0.00,WeatherDisplay:10.37,2013-09-02 09:43:00,
2013-09-02 05:47:00,72.7,70.9,29.92,SW,225,0.0,0.0,94,0.00,FEW,,0.00,WeatherDisplay:10.37,2013-09-02 09:47:00,
2013-09-02 05:52:00,72.7,70.9,29.92,SW,225,0.0,0.0,94,0.00,FEW,,0.00,WeatherDisplay:10.37,2013-09-02 09:52:00,
2013-09-02 05:59:00,72.3,70.8,29.92,SW,225,0.0,0.0,95,0.00,FEW,,0.00,WeatherDisplay:10.37,2013-09-02 09:59:00,
2013-09-02 06:03:00,72.3,70.8,29.92,SW,225,0.0,0.0,95,0.00,FEW,,0.00,WeatherDisplay:10.37,2013-09-02 10:03:00,
2013-09-02 06:08:00,72.3,70.8,29.92,SW,225,0.0,0.0,95,0.00,FEW,,0.00,WeatherDisplay:10.37,2013-09-02 10:08:00,
2013-09-02 06:13:00,72.1,70.6,29.92,SW,225,0.0,0.0,95,0.00,FEW,,0.00,WeatherDisplay:10.37,2013-09-02 10:13:00,
2013-09-02 06:18:00,72.1,70.6,29.92,SW,225,0.0,0.0,95,0.00,FEW,,0.00,WeatherDisplay:10.37,2013-09-02 10:18:00,
2013-09-02 06:23:00,72.3,70.8,29.92,SW,225,0.0,0.0,95,0.00,FEW,,0.00,WeatherDisplay:10.37,2013-09-02 10:23:00,
2013-09-02 06:28:00,72.1,70.6,29.92,SW,225,0.0,0.0,95,0.00,FEW,,0.00,WeatherDisplay:10.37,2013-09-02 10:28:00,
2013-09-02 06:33:00,72.1,70.6,29.93,SW,225,0.0,0.0,95,0.00,FEW,,0.00,WeatherDisplay:10.37,2013-09-02 10:33:00,
2013-09-02 06:38:00,72.1,70.6,29.93,SW,225,0.0,0.0,95,0.00,FEW,,0.00,WeatherDisplay:10.37,2013-09-02 10:38:00,
2013-09-02 06:43:00,72.1,70.6,29.92,SW,225,0.0,0.0,95,0.00,FEW,,0.00,WeatherDisplay:10.37,2013-09-02 10:43:00,
2013-09-02 06:48:00,72.1,70.6,29.93,SW,225,0.0,0.0,95,0.00,FEW,,0.00,WeatherDisplay:10.37,2013-09-02 10:48:00,
2013-09-02 06:53:00,72.1,70.6,29.92,SW,225,0.0,0.0,95,0.00,FEW,,0.00,WeatherDisplay:10.37,2013-09-02 10:53:00,
2013-09-02 06:58:00,72.1,70.6,29.93,SW,225,0.0,0.0,95,0.00,FEW,,0.00,WeatherDisplay:10.37,2013-09-02 10:58:00,
2013-09-02 07:03:00,72.1,70.6,29.92,SW,225,0.0,0.0,95,0.00,FEW,,0.00,WeatherDisplay:10.37,2013-09-02 11:03:00,
2013-09-02 07:08:00,72.1,70.6,29.92,SW,225,0.0,0.0,95,0.00,FEW,,0.00,WeatherDisplay:10.37,2013-09-02 11:08:00,
2013-09-02 07:13:00,72.1,70.6,29.92,SW,225,0.0,0.0,95,0.00,FEW,,0.00,WeatherDisplay:10.37,2013-09-02 11:13:00,
2013-09-02 07:18:00,72.3,70.8,29.92,SW,225,0.0,0.0,95,0.00,FEW,,0.00,WeatherDisplay:10.37,2013-09-02 11:18:00,
2013-09-02 07:23:00,72.3,70.8,29.92,SW,225,0.0,0.0,95,0.00,FEW,,0.00,WeatherDisplay:10.37,2013-09-02 11:23:00,
2013-09-02 07:28:00,72.3,70.8,29.92,SW,225,0.0,0.0,95,0.00,FEW,,0.00,WeatherDisplay:10.37,2013-09-02 11:28:00,
2013-09-02 07:33:00,72.5,71.0,29.92,SW,225,0.0,0.0,95,0.00,FEW,,0.00,WeatherDisplay:10.37,2013-09-02 11:33:00,
2013-09-02 07:38:00,72.5,71.0,29.92,SW,225,0.0,0.0,95,0.00,FEW,,0.00,WeatherDisplay:10.37,2013-09-02 11:38:00,
2013-09-02 07:43:00,73.0,71.5,29.93,SW,225,0.0,0.0,95,0.00,FEW,,0.00,WeatherDisplay:10.37,2013-09-02 11:43:00,
2013-09-02 07:48:00,73.0,71.5,29.94,SW,225,0.0,0.0,95,0.00,FEW,,0.00,WeatherDisplay:10.37,2013-09-02 11:48:00,
2013-09-02 07:53:00,73.2,71.7,29.94,SW,225,0.0,0.0,95,0.00,FEW,,0.00,WeatherDisplay:10.37,2013-09-02 11:53:00,
2013-09-02 07:58:00,73.9,72.4,29.94,SW,225,0.0,0.0,95,0.00,FEW,,0.00,WeatherDisplay:10.37,2013-09-02 11:58:00,
2013-09-02 08:03:00,74.1,72.6,29.94,SW,225,0.0,0.0,95,0.00,FEW,,0.00,WeatherDisplay:10.37,2013-09-02 12:03:00,
2013-09-02 08:08:00,74.7,73.1,29.94,SW,225,0.0,0.0,95,0.00,FEW,,0.00,WeatherDisplay:10.37,2013-09-02 12:08:00,
2013-09-02 08:13:00,74.7,73.1,29.94,SW,225,0.0,0.0,95,0.00,FEW,,0.00,WeatherDisplay:10.37,2013-09-02 12:13:00,
2013-09-02 08:18:00,75.6,73.4,29.95,SW,225,0.0,0.0,93,0.00,FEW,,0.00,WeatherDisplay:10.37,2013-09-02 12:18:00,
2013-09-02 08:23:00,76.1,73.9,29.95,SW,225,0.0,0.0,93,0.00,FEW,,0.00,WeatherDisplay:10.37,2013-09-02 12:23:00,
2013-09-02 08:28:00,76.3,73.8,29.95,SW,225,0.0,0.0,92,0.00,FEW,,0.00,WeatherDisplay:10.37,2013-09-02 12:28:00,
2013-09-02 08:33:00,76.8,74.0,29.95,SW,225,0.0,0.0,91,0.00,FEW,,0.00,WeatherDisplay:10.37,2013-09-02 12:33:00,
2013-09-02 08:38:00,77.0,74.2,29.96,SW,225,0.0,0.0,91,0.00,FEW,,0.00,WeatherDisplay:10.37,2013-09-02 12:38:00,
2013-09-02 08:43:00,77.5,74.4,29.96,SW,225,0.0,0.0,90,0.00,FEW,,0.00,WeatherDisplay:10.37,2013-09-02 12:43:00,
2013-09-02 08:48:00,77.7,74.6,29.96,SW,225,0.0,0.0,90,0.00,FEW,,0.00,WeatherDisplay:10.37,2013-09-02 12:48:00,
2013-09-02 08:53:00,78.3,74.7,29.96,SW,225,0.0,0.0,89,0.00,FEW,,0.00,WeatherDisplay:10.37,2013-09-02 12:53:00,
2013-09-02 08:58:00,78.8,74.9,29.96,SW,225,0.0,0.0,88,0.00,FEW,,0.00,WeatherDisplay:10.37,2013-09-02 12:58:00,
2013-09-02 09:03:00,79.2,75.3,29.95,SW,225,0.0,0.0,88,0.00,FEW,,0.00,WeatherDisplay:10.37,2013-09-02 13:03:00,
2013-09-02 09:08:00,79.3,75.5,29.95,SW,225,0.0,0.0,88,0.00,FEW,,0.00,WeatherDisplay:10.37,2013-09-02 13:08:00,
2013-09-02 09:13:00,79.3,75.5,29.95,SW,225,0.0,0.0,88,0.00,FEW,,0.00,WeatherDisplay:10.37,2013-09-02 13:13:00,
2013-09-02 09:18:00,80.2,75.7,29.96,SW,225,0.0,0.0,86,0.00,FEW,,0.00,WeatherDisplay:10.37,2013-09-02 13:18:00,
2013-09-02 09:23:00,80.8,75.8,29.96,SW,225,0.0,0.0,85,0.00,FEW,,0.00,WeatherDisplay:10.37,2013-09-02 13:23:00,
2013-09-02 09:28:00,81.0,76.0,29.96,SW,225,0.0,0.0,85,0.00,FEW,,0.00,WeatherDisplay:10.37,2013-09-02 13:28:00,
2013-09-02 09:33:00,81.1,75.8,29.96,SW,225,0.0,0.0,84,0.00,FEW,,0.00,WeatherDisplay:10.37,2013-09-02 13:33:00,
2013-09-02 09:38:00,81.5,76.2,29.96,SW,225,0.0,0.0,84,0.00,FEW,,0.00,WeatherDisplay:10.37,2013-09-02 13:38:00,
2013-09-02 09:43:00,82.0,76.4,29.96,SW,225,0.0,0.0,83,0.00,FEW,,0.00,WeatherDisplay:10.37,2013-09-02 13:43:00,
2013-09-02 09:48:00,82.2,76.2,29.97,SW,225,0.0,0.0,82,0.00,FEW,,0.00,WeatherDisplay:10.37,2013-09-02 13:48:00,
2013-09-02 09:53:00,82.8,76.7,29.97,SW,225,0.0,0.0,82,0.00,FEW,,0.00,WeatherDisplay:10.37,2013-09-02 13:53:00,
2013-09-02 09:58:00,83.1,76.7,29.96,West,270,0.0,0.0,81,0.00,FEW,,0.00,WeatherDisplay:10.37,2013-09-02 13:58:00,
2013-09-02 10:03:00,83.3,76.5,29.96,West,270,0.0,0.0,80,0.00,FEW,,0.00,WeatherDisplay:10.37,2013-09-02 14:03:00,
2013-09-02 10:08:00,83.7,76.8,29.97,SW,225,0.0,0.0,80,0.00,FEW,,0.00,WeatherDisplay:10.37,2013-09-02 14:08:00,
2013-09-02 10:13:00,84.2,77.4,29.97,West,270,0.0,0.0,80,0.00,FEW,,0.00,WeatherDisplay:10.37,2013-09-02 14:13:00,
2013-09-02 10:18:00,84.7,77.1,29.97,West,270,0.0,0.0,78,0.00,FEW,,0.00,WeatherDisplay:10.37,2013-09-02 14:18:00,
2013-09-02 10:23:00,84.9,77.3,29.97,SW,225,0.0,0.0,78,0.00,FEW,,0.00,WeatherDisplay:10.37,2013-09-02 14:23:00,
2013-09-02 10:28:00,84.9,77.7,29.96,West,270,0.0,0.0,79,0.00,FEW,,0.00,WeatherDisplay:10.37,2013-09-02 14:28:00,
2013-09-02 10:33:00,85.3,78.0,29.97,West,270,0.0,0.0,79,0.00,FEW,,0.00,WeatherDisplay:10.37,2013-09-02 14:33:00,
2013-09-02 10:38:00,86.9,78.4,29.97,West,270,0.0,0.0,76,0.00,FEW,,0.00,WeatherDisplay:10.37,2013-09-02 14:38:00,
2013-09-02 10:43:00,87.4,77.7,29.97,SW,225,0.0,0.0,73,0.00,FEW,,0.00,WeatherDisplay:10.37,2013-09-02 14:43:00,
2013-09-02 10:48:00,88.2,78.4,29.97,SW,225,0.0,0.0,73,0.00,FEW,,0.00,WeatherDisplay:10.37,2013-09-02 14:48:00,
2013-09-02 10:53:00,88.2,78.4,29.97,SW,225,0.0,0.0,73,0.00,FEW,,0.00,WeatherDisplay:10.37,2013-09-02 14:53:00,
2013-09-02 10:58:00,88.5,78.8,29.97,West,270,0.0,0.0,73,0.00,FEW,,0.00,WeatherDisplay:10.37,2013-09-02 14:58:00,
2013-09-02 11:03:00,88.0,78.2,29.97,West,270,0.0,0.0,73,0.00,FEW,,0.00,WeatherDisplay:10.37,2013-09-02 15:03:00,
2013-09-02 11:08:00,88.5,78.8,29.97,West,270,0.0,0.0,73,0.00,FEW,,0.00,WeatherDisplay:10.37,2013-09-02 15:08:00,
2013-09-02 11:13:00,88.9,78.3,29.97,West,270,0.0,0.0,71,0.00,FEW,,0.00,WeatherDisplay:10.37,2013-09-02 15:13:00,
2013-09-02 11:18:00,91.2,79.2,29.97,West,270,0.0,0.0,68,0.00,FEW,,0.00,WeatherDisplay:10.37,2013-09-02 15:18:00,
2013-09-02 11:23:00,91.2,79.2,29.96,North,0,0.0,0.0,68,0.00,FEW,,0.00,WeatherDisplay:10.37,2013-09-02 15:23:00,
2013-09-02 11:28:00,90.7,78.7,29.97,SW,225,0.0,0.0,68,0.00,FEW,,0.00,WeatherDisplay:10.37,2013-09-02 15:28:00,
2013-09-02 11:33:00,88.9,78.3,29.97,West,270,0.0,0.0,71,0.00,FEW,,0.00,WeatherDisplay:10.37,2013-09-02 15:33:00,
2013-09-02 11:38:00,89.8,78.2,29.97,SW,225,0.0,0.0,69,0.00,FEW,,0.00,WeatherDisplay:10.37,2013-09-02 15:38:00,
2013-09-02 11:43:00,90.9,78.4,29.97,SW,225,0.0,0.0,67,0.00,FEW,,0.00,WeatherDisplay:10.37,2013-09-02 15:43:00,
2013-09-02 11:48:00,91.0,78.1,29.96,West,270,0.0,0.0,66,0.00,FEW,,0.00,WeatherDisplay:10.37,2013-09-02 15:48:00,
2013-09-02 11:53:00,91.8,80.1,29.96,West,270,0.0,0.0,69,0.00,FEW,,0.00,WeatherDisplay:10.37,2013-09-02 15:53:00,
2013-09-02 11:58:00,92.3,78.8,29.96,West,270,0.0,0.0,65,0.00,FEW,,0.00,WeatherDisplay:10.37,2013-09-02 15:58:00,
2013-09-02 12:03:00,92.8,77.9,29.96,SW,225,0.0,0.0,62,0.00,FEW,,0.00,WeatherDisplay:10.37,2013-09-02 16:03:00,
2013-09-02 12:08:00,93.0,78.1,29.95,SW,225,0.0,0.0,62,0.00,FEW,,0.00,WeatherDisplay:10.37,2013-09-02 16:08:00,
2013-09-02 12:13:00,92.8,78.4,29.96,SW,225,0.0,0.0,63,0.00,FEW,,0.00,WeatherDisplay:10.37,2013-09-02 16:13:00,
2013-09-02 12:18:00,93.0,79.0,29.96,NW,315,0.0,0.0,64,0.00,FEW,,0.00,WeatherDisplay:10.37,2013-09-02 16:18:00,
2013-09-02 12:23:00,93.7,78.7,29.96,NW,315,0.0,0.0,62,0.00,FEW,,0.00,WeatherDisplay:10.37,2013-09-02 16:23:00,
2013-09-02 12:28:00,93.7,78.7,29.95,North,0,0.0,0.0,62,0.00,FEW,,0.00,WeatherDisplay:10.37,2013-09-02 16:28:00,
2013-09-02 12:33:00,92.1,77.7,29.95,West,270,0.0,0.0,63,0.00,FEW,,0.00,WeatherDisplay:10.37,2013-09-02 16:33:00,
2013-09-02 12:38:00,93.0,77.1,29.95,SW,225,0.0,0.0,60,0.00,FEW,,0.00,WeatherDisplay:10.37,2013-09-02 16:38:00,
2013-09-02 12:43:00,93.0,77.1,29.95,SW,225,0.0,0.0,60,0.00,FEW,,0.00,WeatherDisplay:10.37,2013-09-02 16:43:00,
2013-09-02 12:48:00,93.2,77.2,29.95,West,270,0.0,0.0,60,0.00,FEW,,0.00,WeatherDisplay:10.37,2013-09-02 16:48:00,
2013-09-02 12:53:00,94.1,78.1,29.95,SW,225,0.0,0.0,60,0.00,FEW,,0.00,WeatherDisplay:10.37,2013-09-02 16:53:00,
2013-09-02 12:58:00,96.1,77.3,29.95,SW,225,0.0,0.0,55,0.00,FEW,,0.00,WeatherDisplay:10.37,2013-09-02 16:58:00,
2013-09-02 13:03:00,96.1,78.4,29.94,South,180,0.0,0.0,57,0.00,FEW,,0.00,WeatherDisplay:10.37,2013-09-02 17:03:00,
2013-09-02 13:07:00,95.7,78.6,29.94,SW,225,0.0,0.0,58,0.00,FEW,,0.00,WeatherDisplay:10.37,2013-09-02 17:07:00,
2013-09-02 13:12:00,95.0,78.4,29.94,SW,225,0.0,0.0,59,0.00,FEW,,0.00,WeatherDisplay:10.37,2013-09-02 17:12:00,
2013-09-02 13:17:00,94.8,77.2,29.94,NW,315,0.0,0.0,57,0.00,FEW,,0.00,WeatherDisplay:10.37,2013-09-02 17:17:00,
2013-09-02 13:22:00,94.8,76.7,29.94,West,270,0.0,0.0,56,0.00,FEW,,0.00,WeatherDisplay:10.37,2013-09-02 17:22:00,
2013-09-02 13:27:00,95.7,77.5,29.93,West,270,0.0,0.0,56,0.00,FEW,,0.00,WeatherDisplay:10.37,2013-09-02 17:27:00,
2013-09-02 13:32:00,94.8,77.2,29.93,SW,225,0.0,0.0,57,0.00,FEW,,0.00,WeatherDisplay:10.37,2013-09-02 17:32:00,
2013-09-02 13:37:00,94.5,77.9,29.93,SW,225,0.0,0.0,59,0.00,FEW,,0.00,WeatherDisplay:10.37,2013-09-02 17:37:00,
2013-09-02 13:42:00,95.4,77.2,29.93,SW,225,0.0,0.0,56,0.00,FEW,,0.00,WeatherDisplay:10.37,2013-09-02 17:42:00,
2013-09-02 13:47:00,95.5,75.1,29.92,South,180,0.0,0.0,52,0.00,FEW,,0.00,WeatherDisplay:10.37,2013-09-02 17:47:00,
2013-09-02 13:52:00,95.0,76.3,29.92,SW,225,0.0,0.0,55,0.00,FEW,,0.00,WeatherDisplay:10.37,2013-09-02 17:52:00,
2013-09-02 13:57:00,93.7,75.1,29.92,SW,225,0.0,0.0,55,0.00,FEW,,0.00,WeatherDisplay:10.37,2013-09-02 17:57:00,
2013-09-02 14:02:00,93.0,75.5,29.92,SW,225,0.0,0.0,57,0.00,FEW,,0.00,WeatherDisplay:10.37,2013-09-02 18:02:00,
2013-09-02 14:07:00,93.2,75.2,29.91,SW,225,0.0,0.0,56,0.00,FEW,,0.00,WeatherDisplay:10.37,2013-09-02 18:07:00,
2013-09-02 14:12:00,93.2,76.2,29.91,South,180,0.0,0.0,58,0.00,FEW,,0.00,WeatherDisplay:10.37,2013-09-02 18:12:00,
2013-09-02 14:17:00,93.6,77.1,29.91,SW,225,0.0,0.0,59,0.00,FEW,,0.00,WeatherDisplay:10.37,2013-09-02 18:17:00,
2013-09-02 14:22:00,93.0,75.5,29.90,West,270,0.0,0.0,57,0.00,FEW,,0.00,WeatherDisplay:10.37,2013-09-02 18:22:00,
2013-09-02 14:27:00,93.4,75.9,29.90,SW,225,0.0,0.0,57,0.00,FEW,,0.00,WeatherDisplay:10.37,2013-09-02 18:27:00,
2013-09-02 14:32:00,93.2,76.2,29.90,West,270,0.0,0.0,58,0.00,FEW,,0.00,WeatherDisplay:10.37,2013-09-02 18:32:00,
2013-09-02 14:37:00,92.7,74.7,29.90,West,270,0.0,0.0,56,0.00,FEW,,0.00,WeatherDisplay:10.37,2013-09-02 18:37:00,
2013-09-02 14:42:00,93.0,75.5,29.90,South,180,0.0,0.0,57,0.00,FEW,,0.00,WeatherDisplay:10.37,2013-09-02 18:42:00,
2013-09-02 14:47:00,92.8,74.8,29.91,West,270,0.0,0.0,56,0.00,FEW,,0.00,WeatherDisplay:10.37,2013-09-02 18:47:00,
2013-09-02 14:52:00,92.8,75.9,29.90,South,180,0.0,0.0,58,0.00,FEW,,0.00,WeatherDisplay:10.37,2013-09-02 18:52:00,
2013-09-02 14:57:00,91.8,74.4,29.89,SW,225,0.0,0.0,57,0.00,FEW,,0.00,WeatherDisplay:10.37,2013-09-02 18:57:00,
2013-09-02 15:02:00,91.0,74.2,29.89,SW,225,0.0,0.0,58,0.00,FEW,,0.00,WeatherDisplay:10.37,2013-09-02 19:02:00,
2013-09-02 15:07:00,90.7,74.4,29.89,SW,225,0.0,0.0,59,0.00,FEW,,0.00,WeatherDisplay:10.37,2013-09-02 19:07:00,
2013-09-02 15:12:00,90.7,74.9,29.89,SW,225,0.0,0.0,60,0.00,FEW,,0.00,WeatherDisplay:10.37,2013-09-02 19:12:00,
2013-09-02 15:17:00,92.5,75.0,29.88,SW,225,0.0,0.0,57,0.00,FEW,,0.00,WeatherDisplay:10.37,2013-09-02 19:17:00,
2013-09-02 15:22:00,92.1,75.2,29.88,SE,135,0.0,0.0,58,0.00,FEW,,0.00,WeatherDisplay:10.37,2013-09-02 19:22:00,
2013-09-02 15:27:00,91.4,75.1,29.88,SE,135,0.0,0.0,59,0.00,FEW,,0.00,WeatherDisplay:10.37,2013-09-02 19:27:00,
2013-09-02 15:32:00,90.0,75.7,29.88,West,270,0.0,0.0,63,0.00,FEW,,0.00,WeatherDisplay:10.37,2013-09-02 19:32:00,
2013-09-02 15:37:00,84.7,76.3,29.89,West,270,0.1,2.8,76,0.00,FEW,,0.00,WeatherDisplay:10.37,2013-09-02 19:37:00,
2013-09-02 15:42:00,84.7,76.3,29.89,West,270,0.1,2.8,76,0.00,FEW,,0.00,WeatherDisplay:10.37,2013-09-02 19:42:00,
2013-09-02 15:47:00,79.0,74.8,29.87,NE,45,0.0,0.0,87,0.10,RA,,0.10,WeatherDisplay:10.37,2013-09-02 19:47:00,
2013-09-02 15:52:00,79.0,74.8,29.87,NE,45,0.0,0.0,87,0.10,RA,,0.10,WeatherDisplay:10.37,2013-09-02 19:52:00,
2013-09-02 15:57:00,78.3,74.4,29.87,NE,45,0.0,0.0,88,0.15,RA,,0.15,WeatherDisplay:10.37,2013-09-02 19:57:00,
2013-09-02 16:02:00,78.4,75.3,29.87,NE,45,0.0,0.0,90,0.15,RA,,0.15,WeatherDisplay:10.37,2013-09-02 20:02:00,
2013-09-02 16:07:00,78.6,75.8,29.87,NE,45,0.0,0.0,91,0.15,RA,,0.15,WeatherDisplay:10.37,2013-09-02 20:07:00,
2013-09-02 16:12:00,79.7,77.2,29.87,NE,45,0.0,0.0,92,0.15,RA,,0.15,WeatherDisplay:10.37,2013-09-02 20:12:00,
2013-09-02 16:17:00,81.5,78.9,29.87,NE,45,0.0,0.0,92,0.15,RA,,0.15,WeatherDisplay:10.37,2013-09-02 20:17:00,
2013-09-02 16:22:00,81.9,79.3,29.87,NE,45,0.0,0.0,92,0.15,RA,,0.15,WeatherDisplay:10.37,2013-09-02 20:22:00,
2013-09-02 16:27:00,82.4,79.8,29.87,NE,45,0.0,0.0,92,0.15,RA,,0.15,WeatherDisplay:10.37,2013-09-02 20:27:00,
2013-09-02 16:32:00,82.9,80.4,29.87,NE,45,0.0,0.0,92,0.15,BKN,,0.15,WeatherDisplay:10.37,2013-09-02 20:32:00,
2013-09-02 16:37:00,83.5,80.6,29.87,NE,45,0.0,0.0,91,0.15,BKN,,0.15,WeatherDisplay:10.37,2013-09-02 20:37:00,
2013-09-02 16:42:00,83.5,80.2,29.86,NE,45,0.0,0.0,90,0.15,BKN,,0.15,WeatherDisplay:10.37,2013-09-02 20:42:00,
2013-09-02 16:47:00,83.5,79.2,29.86,NE,45,0.0,0.0,87,0.15,BKN,,0.15,WeatherDisplay:10.37,2013-09-02 20:47:00,
2013-09-02 16:52:00,83.5,79.2,29.86,NE,45,0.0,0.0,87,0.15,BKN,,0.15,WeatherDisplay:10.37,2013-09-02 20:52:00,
2013-09-02 16:57:00,84.0,78.7,29.86,NE,45,0.0,0.0,84,0.15,BKN,,0.15,WeatherDisplay:10.37,2013-09-02 20:57:00,
2013-09-02 17:02:00,84.6,79.5,29.86,NE,45,0.0,0.0,85,0.15,BKN,,0.15,WeatherDisplay:10.37,2013-09-02 21:02:00,
2013-09-02 17:07:00,84.2,78.5,29.86,NE,45,0.0,0.0,83,0.15,BKN,,0.15,WeatherDisplay:10.37,2013-09-02 21:07:00,
2013-09-02 17:12:00,84.4,76.8,29.86,West,270,0.0,0.0,78,0.15,BKN,,0.15,WeatherDisplay:10.37,2013-09-02 21:12:00,
2013-09-02 17:17:00,84.9,77.3,29.86,SW,225,0.0,0.0,78,0.15,BKN,,0.15,WeatherDisplay:10.37,2013-09-02 21:17:00,
2013-09-02 17:22:00,85.3,77.2,29.86,SW,225,0.0,0.0,77,0.15,BKN,,0.15,WeatherDisplay:10.37,2013-09-02 21:22:00,
2013-09-02 17:27:00,85.3,77.6,29.86,SE,135,0.0,0.0,78,0.15,BKN,,0.15,WeatherDisplay:10.37,2013-09-02 21:27:00,
2013-09-02 17:32:00,85.3,77.2,29.86,SE,135,0.0,0.0,77,0.15,BKN,,0.15,WeatherDisplay:10.37,2013-09-02 21:32:00,
2013-09-02 17:37:00,85.6,77.2,29.87,SE,135,0.0,0.0,76,0.15,BKN,,0.15,WeatherDisplay:10.37,2013-09-02 21:37:00,
2013-09-02 17:42:00,85.6,77.2,29.87,SE,135,0.0,0.0,76,0.15,BKN,,0.15,WeatherDisplay:10.37,2013-09-02 21:42:00,
2013-09-02 17:47:00,85.5,77.8,29.87,SE,135,0.0,0.0,78,0.15,BKN,,0.15,WeatherDisplay:10.37,2013-09-02 21:47:00,
2013-09-02 17:52:00,84.9,77.7,29.87,SE,135,0.0,0.0,79,0.15,BKN,,0.15,WeatherDisplay:10.37,2013-09-02 21:52:00,
2013-09-02 17:57:00,84.7,77.1,29.87,South,180,0.0,0.0,78,0.15,BKN,,0.15,WeatherDisplay:10.37,2013-09-02 21:57:00,
2013-09-02 18:02:00,84.9,76.9,29.87,South,180,0.0,0.0,77,0.15,BKN,,0.15,WeatherDisplay:10.37,2013-09-02 22:02:00,
2013-09-02 18:07:00,84.7,77.1,29.87,South,180,0.0,0.0,78,0.15,BKN,,0.15,WeatherDisplay:10.37,2013-09-02 22:07:00,
2013-09-02 18:12:00,84.7,77.5,29.88,SW,225,0.0,1.4,79,0.15,BKN,,0.15,WeatherDisplay:10.37,2013-09-02 22:12:00,
2013-09-02 18:17:00,84.4,76.0,29.88,SW,225,0.0,2.3,76,0.15,BKN,,0.15,WeatherDisplay:10.37,2013-09-02 22:17:00,
2013-09-02 18:22:00,84.0,76.4,29.88,SW,225,0.0,0.0,78,0.15,BKN,,0.15,WeatherDisplay:10.37,2013-09-02 22:22:00,
2013-09-02 18:27:00,83.8,76.6,29.88,SW,225,0.0,0.0,79,0.15,BKN,,0.15,WeatherDisplay:10.37,2013-09-02 22:27:00,
2013-09-02 18:32:00,83.5,75.9,29.87,SW,225,0.0,0.0,78,0.15,BKN,,0.15,WeatherDisplay:10.37,2013-09-02 22:32:00,
2013-09-02 18:37:00,83.5,76.3,29.88,SW,225,0.0,0.0,79,0.15,BKN,,0.15,WeatherDisplay:10.37,2013-09-02 22:37:00,
2013-09-02 18:42:00,83.5,76.7,29.88,SE,135,0.0,0.0,80,0.15,BKN,,0.15,WeatherDisplay:10.37,2013-09-02 22:42:00,
2013-09-02 18:47:00,83.1,76.3,29.89,South,180,0.0,0.0,80,0.15,BKN,,0.15,WeatherDisplay:10.37,2013-09-02 22:47:00,
2013-09-02 18:52:00,82.9,76.9,29.89,SW,225,0.0,0.0,82,0.15,BKN,,0.15,WeatherDisplay:10.37,2013-09-02 22:52:00,
2013-09-02 18:57:00,82.0,75.6,29.89,South,180,0.0,0.0,81,0.15,BKN,,0.15,WeatherDisplay:10.37,2013-09-02 22:57:00,
2013-09-02 19:02:00,81.7,75.6,29.89,South,180,0.0,0.0,82,0.15,BKN,,0.15,WeatherDisplay:10.37,2013-09-02 23:02:00,
2013-09-02 19:07:00,81.1,75.1,29.89,SW,225,0.1,2.8,82,0.15,BKN,,0.15,WeatherDisplay:10.37,2013-09-02 23:07:00,
2013-09-02 19:12:00,80.4,75.5,29.89,SE,135,3.9,3.9,85,0.15,BKN,,0.15,WeatherDisplay:10.37,2013-09-02 23:12:00,
2013-09-02 19:17:00,79.3,75.1,29.89,SW,225,0.0,0.0,87,0.15,BKN,,0.15,WeatherDisplay:10.37,2013-09-02 23:17:00,
2013-09-02 19:22:00,78.8,74.9,29.89,SW,225,0.0,0.0,88,0.15,BKN,,0.15,WeatherDisplay:10.37,2013-09-02 23:22:00,
2013-09-02 19:27:00,78.6,75.1,29.89,SW,225,0.0,0.0,89,0.15,BKN,,0.15,WeatherDisplay:10.37,2013-09-02 23:27:00,
2013-09-02 19:32:00,78.6,75.1,29.89,SW,225,0.0,0.0,89,0.15,BKN,,0.15,WeatherDisplay:10.37,2013-09-02 23:32:00,
2013-09-02 19:37:00,78.4,75.3,29.89,SW,225,0.0,0.0,90,0.15,BKN,,0.15,WeatherDisplay:10.37,2013-09-02 23:37:00,
2013-09-02 19:42:00,78.4,74.9,29.89,SW,225,0.0,0.0,89,0.09,BKN,,0.15,WeatherDisplay:10.37,2013-09-02 23:42:00,
2013-09-02 19:47:00,78.3,75.1,29.89,SW,225,0.0,0.0,90,0.05,BKN,,0.15,WeatherDisplay:10.37,2013-09-02 23:47:00,
2013-09-02 19:52:00,78.1,74.6,29.89,SW,225,0.0,0.0,89,0.00,BKN,,0.15,WeatherDisplay:10.37,2013-09-02 23:52:00,
2013-09-02 19:57:00,78.1,74.9,29.89,SW,225,0.0,0.0,90,0.00,BKN,,0.15,WeatherDisplay:10.37,2013-09-02 23:57:00,
2013-09-02 20:02:00,77.9,74.4,29.90,SW,225,0.0,0.0,89,0.00,BKN,,0.15,WeatherDisplay:10.37,2013-09-03 00:02:00,
2013-09-02 20:07:00,77.9,74.4,29.90,SW,225,0.0,0.0,89,0.00,BKN,,0.15,WeatherDisplay:10.37,2013-09-03 00:07:00,
2013-09-02 20:12:00,77.7,74.2,29.90,SW,225,0.0,0.0,89,0.00,BKN,,0.15,WeatherDisplay:10.37,2013-09-03 00:12:00,
2013-09-02 20:17:00,77.5,74.4,29.90,SW,225,0.0,0.0,90,0.00,BKN,,0.15,WeatherDisplay:10.37,2013-09-03 00:17:00,
2013-09-02 20:22:00,77.4,74.5,29.90,SW,225,0.0,0.0,91,0.00,BKN,,0.15,WeatherDisplay:10.37,2013-09-03 00:22:00,
2013-09-02 20:27:00,77.4,74.5,29.90,SW,225,0.0,0.0,91,0.00,BKN,,0.15,WeatherDisplay:10.37,2013-09-03 00:27:00,
2013-09-02 20:32:00,77.2,74.3,29.90,SW,225,0.0,0.0,91,0.00,BKN,,0.15,WeatherDisplay:10.37,2013-09-03 00:32:00,
2013-09-02 20:37:00,76.8,74.3,29.90,SW,225,0.0,0.0,92,0.00,BKN,,0.15,WeatherDisplay:10.37,2013-09-03 00:37:00,
2013-09-02 20:42:00,76.8,74.3,29.91,SW,225,0.0,0.0,92,0.00,BKN,,0.15,WeatherDisplay:10.37,2013-09-03 00:42:00,
2013-09-02 20:47:00,76.8,74.3,29.91,SW,225,0.0,0.0,92,0.00,BKN,,0.15,WeatherDisplay:10.37,2013-09-03 00:47:00,
2013-09-02 20:52:00,76.6,74.1,29.91,SW,225,0.0,0.0,92,0.00,BKN,,0.15,WeatherDisplay:10.37,2013-09-03 00:52:00,
2013-09-02 20:57:00,76.5,74.3,29.90,SW,225,0.0,0.0,93,0.00,BKN,,0.15,WeatherDisplay:10.37,2013-09-03 00:57:00,
2013-09-02 21:02:00,76.3,74.1,29.90,SW,225,0.0,0.0,93,0.00,BKN,,0.15,WeatherDisplay:10.37,2013-09-03 01:02:00,
2013-09-02 21:07:00,76.3,74.1,29.91,SW,225,0.0,0.0,93,0.00,BKN,,0.15,WeatherDisplay:10.37,2013-09-03 01:07:00,
2013-09-02 21:12:00,76.3,74.1,29.91,SW,225,0.0,0.0,93,0.00,BKN,,0.15,WeatherDisplay:10.37,2013-09-03 01:12:00,
2013-09-02 21:17:00,76.1,73.9,29.91,SW,225,0.0,0.0,93,0.00,BKN,,0.15,WeatherDisplay:10.37,2013-09-03 01:17:00,
2013-09-02 21:22:00,75.9,73.7,29.91,SW,225,0.0,0.0,93,0.00,BKN,,0.15,WeatherDisplay:10.37,2013-09-03 01:22:00,
2013-09-02 21:27:00,75.9,73.7,29.90,SW,225,0.0,0.0,93,0.00,BKN,,0.15,WeatherDisplay:10.37,2013-09-03 01:27:00,
2013-09-02 21:32:00,75.9,73.7,29.90,SW,225,0.0,0.0,93,0.00,BKN,,0.15,WeatherDisplay:10.37,2013-09-03 01:32:00,
2013-09-02 21:37:00,75.7,73.6,29.90,SW,225,0.0,0.0,93,0.00,BKN,,0.15,WeatherDisplay:10.37,2013-09-03 01:37:00,
2013-09-02 21:42:00,75.6,73.4,29.90,SW,225,0.0,0.0,93,0.00,BKN,,0.15,WeatherDisplay:10.37,2013-09-03 01:42:00,
2013-09-02 21:47:00,75.6,73.4,29.90,SW,225,0.0,0.0,93,0.00,BKN,,0.15,WeatherDisplay:10.37,2013-09-03 01:47:00,
2013-09-02 21:52:00,75.6,73.4,29.90,SW,225,0.0,0.0,93,0.00,BKN,,0.15,WeatherDisplay:10.37,2013-09-03 01:52:00,
2013-09-02 21:57:00,75.6,73.7,29.90,SW,225,0.0,0.0,94,0.00,BKN,,0.15,WeatherDisplay:10.37,2013-09-03 01:57:00,
2013-09-02 22:02:00,75.4,73.5,29.90,SW,225,0.0,0.0,94,0.00,BKN,,0.15,WeatherDisplay:10.37,2013-09-03 02:02:00,
2013-09-02 22:07:00,75.4,73.5,29.90,SW,225,0.0,0.0,94,0.00,BKN,,0.15,WeatherDisplay:10.37,2013-09-03 02:07:00,
2013-09-02 22:12:00,75.4,73.5,29.90,SW,225,0.0,0.0,94,0.00,BKN,,0.15,WeatherDisplay:10.37,2013-09-03 02:12:00,
2013-09-02 22:17:00,75.4,73.5,29.90,SW,225,0.0,0.0,94,0.00,BKN,,0.15,WeatherDisplay:10.37,2013-09-03 02:17:00,
2013-09-02 22:22:00,75.4,73.5,29.91,SW,225,0.0,0.0,94,0.00,BKN,,0.15,WeatherDisplay:10.37,2013-09-03 02:22:00,
2013-09-02 22:27:00,75.4,73.5,29.90,SW,225,0.0,0.0,94,0.00,BKN,,0.15,WeatherDisplay:10.37,2013-09-03 02:27:00,
2013-09-02 22:31:00,75.6,73.7,29.90,SW,225,0.0,0.0,94,0.00,BKN,,0.15,WeatherDisplay:10.37,2013-09-03 02:31:00,
2013-09-02 22:36:00,75.7,73.6,29.90,SW,225,0.0,0.0,93,0.00,BKN,,0.15,WeatherDisplay:10.37,2013-09-03 02:36:00,
2013-09-02 22:41:00,75.6,73.4,29.90,SW,225,0.0,0.0,93,0.00,BKN,,0.15,WeatherDisplay:10.37,2013-09-03 02:41:00,
2013-09-02 22:46:00,75.6,73.4,29.91,SW,225,0.0,0.0,93,0.00,BKN,,0.15,WeatherDisplay:10.37,2013-09-03 02:46:00,
2013-09-02 22:51:00,75.6,73.4,29.90,SW,225,0.0,0.0,93,0.00,BKN,,0.15,WeatherDisplay:10.37,2013-09-03 02:51:00,
2013-09-02 22:56:00,75.7,73.6,29.91,SW,225,0.0,0.0,93,0.00,BKN,,0.15,WeatherDisplay:10.37,2013-09-03 02:56:00,
2013-09-02 23:01:00,75.7,73.2,29.91,SW,225,0.0,0.0,92,0.00,BKN,,0.15,WeatherDisplay:10.37,2013-09-03 03:01:00,
2013-09-02 23:06:00,75.7,73.2,29.91,SW,225,0.0,0.0,92,0.00,BKN,,0.15,WeatherDisplay:10.37,2013-09-03 03:06:00,
2013-09-02 23:11:00,75.7,73.2,29.91,SW,225,0.0,0.0,92,0.00,BKN,,0.15,WeatherDisplay:10.37,2013-09-03 03:11:00,
2013-09-02 23:16:00,75.6,73.1,29.90,SW,225,0.0,0.0,92,0.00,BKN,,0.15,WeatherDisplay:10.37,2013-09-03 03:16:00,
2013-09-02 23:21:00,75.6,73.1,29.91,SW,225,0.0,0.0,92,0.00,BKN,,0.15,WeatherDisplay:10.37,2013-09-03 03:21:00,
2013-09-02 23:26:00,75.4,72.9,29.91,SW,225,0.0,0.0,92,0.00,BKN,,0.15,WeatherDisplay:10.37,2013-09-03 03:26:00,
2013-09-02 23:31:00,75.4,73.2,29.91,SW,225,0.0,0.0,93,0.00,BKN,,0.15,WeatherDisplay:10.37,2013-09-03 03:31:00,
2013-09-02 23:36:00,75.2,73.0,29.91,SW,225,0.0,0.0,93,0.00,BKN,,0.15,WeatherDisplay:10.37,2013-09-03 03:36:00,
2013-09-02 23:41:00,75.2,73.0,29.90,SW,225,0.0,0.0,93,0.00,BKN,,0.15,WeatherDisplay:10.37,2013-09-03 03:41:00,
2013-09-02 23:46:00,75.2,73.0,29.90,SW,225,0.0,0.0,93,0.00,BKN,,0.15,WeatherDisplay:10.37,2013-09-03 03:46:00,
2013-09-02 23:51:00,75.4,73.2,29.90,SW,225,0.0,0.0,93,0.00,BKN,,0.15,WeatherDisplay:10.37,2013-09-03 03:51:00,
2013-09-02 23:56:00,75.4,73.2,29.90,SW,225,0.0,0.0,93,0.00,BKN,,0.15,WeatherDisplay:10.37,2013-09-03 03:56:00,